Time,TemperatureF,DewpointF,PressureIn,WindDirection,WindDirectionDegrees,WindSpeedMPH,WindSpeedGustMPH,Humidity,HourlyPrecipIn,Conditions,Clouds,dailyrainin,SoftwareType,DateUTC
2013-02-13 00:00:00,27.4,8.4,30.06,NNE,22,4.0,4.0,44,0.00,,---,0.01,VWS V14.01,2013-02-13 07:00:00,
2013-02-13 00:05:00,27.4,8.4,30.06,North,0,2.0,2.0,44,0.00,,---,0.00,VWS V14.01,2013-02-13 07:05:00,
2013-02-13 00:10:00,27.4,8.4,30.06,NNE,22,0.4,0.4,44,0.00,,---,0.00,VWS V14.01,2013-02-13 07:10:00,
2013-02-13 00:15:00,27.5,8.5,30.07,North,0,4.0,4.0,44,0.00,,---,0.00,VWS V14.01,2013-02-13 07:15:00,
2013-02-13 00:20:00,27.5,8.5,30.07,NNE,22,3.1,3.1,44,0.00,,---,0.00,VWS V14.01,2013-02-13 07:20:00,
2013-02-13 00:25:00,27.5,8.5,30.07,NW,315,2.9,2.9,44,0.00,,---,0.00,VWS V14.01,2013-02-13 07:25:00,
2013-02-13 00:30:00,27.5,8.5,30.06,NW,315,1.3,1.3,44,0.00,,---,0.00,VWS V14.01,2013-02-13 07:30:00,
2013-02-13 00:35:00,27.7,8.6,30.06,NNE,22,4.0,4.0,44,0.00,,---,0.00,VWS V14.01,2013-02-13 07:35:00,
2013-02-13 00:40:00,27.7,8.6,30.06,North,0,4.0,4.0,44,0.00,,---,0.00,VWS V14.01,2013-02-13 07:40:00,
2013-02-13 00:45:00,27.7,8.6,30.07,North,0,1.8,1.8,44,0.00,,---,0.00,VWS V14.01,2013-02-13 07:45:00,
2013-02-13 00:50:00,27.4,8.4,30.06,North,0,0.4,0.4,44,0.00,,---,0.00,VWS V14.01,2013-02-13 07:50:00,
2013-02-13 00:55:00,27.0,8.5,30.07,NW,315,0.9,0.9,45,0.00,,---,0.00,VWS V14.01,2013-02-13 07:55:00,
2013-02-13 01:00:00,26.8,8.8,30.07,NNW,338,3.4,3.4,46,0.00,,---,0.00,VWS V14.01,2013-02-13 08:00:00,
2013-02-13 01:05:00,27.0,9.0,30.07,North,0,4.0,4.0,46,0.00,,---,0.00,VWS V14.01,2013-02-13 08:05:00,
2013-02-13 01:10:00,27.0,9.0,30.07,WNW,292,3.8,3.8,46,0.00,,---,0.01,VWS V14.01,2013-02-13 08:10:00,
2013-02-13 01:15:00,27.0,9.0,30.07,NNE,22,2.7,2.7,46,0.00,,---,0.00,VWS V14.01,2013-02-13 08:15:00,
2013-02-13 01:20:00,27.0,9.0,30.07,NW,315,1.3,1.3,46,0.00,,---,0.00,VWS V14.01,2013-02-13 08:20:00,
2013-02-13 01:25:00,27.0,9.0,30.07,NNW,338,1.3,1.3,46,0.00,,---,0.00,VWS V14.01,2013-02-13 08:25:00,
2013-02-13 01:30:00,27.0,9.5,30.07,NNW,338,2.2,2.2,47,0.00,,---,0.00,VWS V14.01,2013-02-13 08:30:00,
2013-02-13 01:35:00,26.8,9.3,30.06,WNW,292,0.4,0.4,47,0.00,,---,0.00,VWS V14.01,2013-02-13 08:35:00,
2013-02-13 01:40:00,26.8,9.3,30.06,NNW,338,1.8,1.8,47,0.00,,---,0.00,VWS V14.01,2013-02-13 08:40:00,
2013-02-13 01:45:00,26.6,9.1,30.06,North,0,1.8,1.8,47,0.00,,---,0.00,VWS V14.01,2013-02-13 08:45:00,
2013-02-13 01:50:00,26.5,9.0,30.07,NW,315,1.1,1.1,47,0.00,,---,0.00,VWS V14.01,2013-02-13 08:50:00,
2013-02-13 01:55:00,26.3,9.3,30.07,NW,315,0.4,0.4,48,0.00,,---,0.00,VWS V14.01,2013-02-13 08:55:00,
2013-02-13 02:00:00,26.3,9.3,30.07,NNW,338,0.2,0.2,48,0.00,,---,0.00,VWS V14.01,2013-02-13 09:00:00,
2013-02-13 02:05:00,26.3,9.3,30.07,NW,315,0.7,0.7,48,0.00,,---,0.00,VWS V14.01,2013-02-13 09:05:00,
2013-02-13 02:10:00,26.3,9.3,30.07,NW,315,3.1,3.1,48,0.00,,---,0.00,VWS V14.01,2013-02-13 09:10:00,
2013-02-13 02:15:00,26.3,9.3,30.06,NW,315,2.2,2.2,48,0.00,,---,0.00,VWS V14.01,2013-02-13 09:15:00,
2013-02-13 02:20:00,26.3,9.3,30.06,WNW,292,0.4,0.4,48,0.00,,---,0.00,VWS V14.01,2013-02-13 09:20:00,
2013-02-13 02:25:00,26.3,9.3,30.06,NW,315,1.8,1.8,48,0.00,,---,0.00,VWS V14.01,2013-02-13 09:25:00,
2013-02-13 02:30:00,26.3,9.3,30.06,WNW,292,2.7,2.7,48,0.00,,---,0.00,VWS V14.01,2013-02-13 09:30:00,
2013-02-13 02:35:00,26.1,9.1,30.06,NNW,338,2.5,2.5,48,0.00,,---,0.00,VWS V14.01,2013-02-13 09:35:00,
2013-02-13 02:40:00,26.1,9.1,30.06,NNW,338,2.5,2.5,48,0.00,,---,0.00,VWS V14.01,2013-02-13 09:40:00,
2013-02-13 02:45:00,26.3,9.3,30.06,NNW,338,1.8,1.8,48,0.00,,---,0.00,VWS V14.01,2013-02-13 09:45:00,
2013-02-13 02:50:00,26.3,9.3,30.06,NNE,22,3.8,3.8,48,0.00,,---,0.00,VWS V14.01,2013-02-13 09:50:00,
2013-02-13 02:55:00,26.1,9.1,30.06,NNW,338,3.8,3.8,48,0.00,,---,0.00,VWS V14.01,2013-02-13 09:55:00,
2013-02-13 03:00:00,26.1,9.1,30.06,NW,315,4.0,4.0,48,0.00,,---,0.00,VWS V14.01,2013-02-13 10:00:00,
2013-02-13 03:05:00,26.1,9.1,30.06,NW,315,4.5,4.5,48,0.00,,---,0.00,VWS V14.01,2013-02-13 10:05:00,
2013-02-13 03:10:00,26.1,9.1,30.06,North,0,5.6,5.6,48,0.00,,---,0.00,VWS V14.01,2013-02-13 10:10:00,
2013-02-13 03:15:00,26.1,9.1,30.06,NNE,22,5.4,5.4,48,0.00,,---,0.00,VWS V14.01,2013-02-13 10:15:00,
2013-02-13 03:20:00,26.1,9.1,30.06,NNW,338,6.7,6.7,48,0.00,,---,0.00,VWS V14.01,2013-02-13 10:20:00,
2013-02-13 03:25:00,26.1,9.1,30.06,NW,315,4.7,4.7,48,0.00,,---,0.00,VWS V14.01,2013-02-13 10:25:00,
2013-02-13 03:30:00,25.9,8.9,30.06,NW,315,2.5,2.5,48,0.00,,---,0.00,VWS V14.01,2013-02-13 10:30:00,
2013-02-13 03:35:00,25.7,8.7,30.06,NNE,22,1.8,1.8,48,0.00,,---,0.00,VWS V14.01,2013-02-13 10:35:00,
2013-02-13 03:40:00,25.6,9.1,30.06,NW,315,2.5,2.5,49,0.00,,---,0.00,VWS V14.01,2013-02-13 10:40:00,
2013-02-13 03:45:00,25.6,9.1,30.06,WNW,292,2.2,2.2,49,0.00,,---,0.00,VWS V14.01,2013-02-13 10:45:00,
2013-02-13 03:50:00,25.2,8.7,30.06,NNW,338,1.1,1.1,49,0.00,,---,0.00,VWS V14.01,2013-02-13 10:50:00,
2013-02-13 03:55:00,25.0,9.0,30.06,NW,315,4.7,4.7,50,0.00,,---,0.00,VWS V14.01,2013-02-13 10:55:00,
2013-02-13 04:00:00,25.0,9.4,30.06,North,0,1.8,1.8,51,0.00,,---,0.00,VWS V14.01,2013-02-13 11:00:00,
2013-02-13 04:05:00,24.8,9.2,30.06,NW,315,2.0,2.0,51,0.00,,---,0.00,VWS V14.01,2013-02-13 11:05:00,
2013-02-13 04:10:00,25.0,9.4,30.06,NNW,338,2.5,2.5,51,0.00,,---,0.00,VWS V14.01,2013-02-13 11:10:00,
2013-02-13 04:15:00,25.0,9.4,30.06,NW,315,1.8,1.8,51,0.00,,---,0.00,VWS V14.01,2013-02-13 11:15:00,
2013-02-13 04:20:00,25.0,9.4,30.06,NNW,338,1.8,1.8,51,0.00,,---,0.00,VWS V14.01,2013-02-13 11:20:00,
2013-02-13 04:25:00,25.0,9.4,30.05,North,0,0.9,0.9,51,0.00,,---,0.00,VWS V14.01,2013-02-13 11:25:00,
2013-02-13 04:30:00,25.0,9.4,30.05,NNE,22,1.3,1.3,51,0.00,,---,0.00,VWS V14.01,2013-02-13 11:30:00,
2013-02-13 04:35:00,25.0,9.0,30.05,NNW,338,0.2,0.2,50,0.00,,---,0.00,VWS V14.01,2013-02-13 11:35:00,
2013-02-13 04:40:00,25.0,9.0,30.05,North,0,0.9,0.9,50,0.00,,---,0.00,VWS V14.01,2013-02-13 11:40:00,
2013-02-13 04:45:00,24.8,8.4,30.05,NNW,338,2.0,2.0,49,0.00,,---,0.00,VWS V14.01,2013-02-13 11:45:00,
2013-02-13 04:50:00,24.8,8.4,30.05,NNW,338,0.4,0.4,49,0.00,,---,0.00,VWS V14.01,2013-02-13 11:50:00,
2013-02-13 04:55:00,24.8,8.8,30.05,North,0,1.8,1.8,50,0.00,,---,0.00,VWS V14.01,2013-02-13 11:55:00,
2013-02-13 05:00:00,24.8,8.8,30.05,North,0,1.1,1.1,50,0.00,,---,0.00,VWS V14.01,2013-02-13 12:00:00,
2013-02-13 05:05:00,24.8,8.8,30.05,NNE,22,2.7,2.7,50,0.00,,---,0.00,VWS V14.01,2013-02-13 12:05:00,
2013-02-13 05:10:00,24.8,8.4,30.05,NNW,338,3.4,3.4,49,0.00,,---,0.00,VWS V14.01,2013-02-13 12:10:00,
2013-02-13 05:15:00,24.8,8.4,30.05,NNW,338,0.0,0.0,49,0.00,,---,0.00,VWS V14.01,2013-02-13 12:15:00,
2013-02-13 05:20:00,24.7,8.7,30.06,NNE,22,1.3,1.3,50,0.00,,---,0.00,VWS V14.01,2013-02-13 12:20:00,
2013-02-13 05:25:00,24.5,8.5,30.06,NNW,338,1.6,1.6,50,0.00,,---,0.00,VWS V14.01,2013-02-13 12:25:00,
2013-02-13 05:30:00,24.5,8.5,30.05,North,0,0.2,0.2,50,0.00,,---,0.00,VWS V14.01,2013-02-13 12:30:00,
2013-02-13 05:35:00,24.1,8.2,30.05,NNW,338,0.4,0.4,50,0.00,,---,0.00,VWS V14.01,2013-02-13 12:35:00,
2013-02-13 05:40:00,24.1,8.2,30.05,NNW,338,0.0,0.0,50,0.00,,---,0.00,VWS V14.01,2013-02-13 12:40:00,
2013-02-13 05:45:00,23.9,8.4,30.06,NNW,338,1.1,1.1,51,0.00,,---,0.00,VWS V14.01,2013-02-13 12:45:00,
2013-02-13 05:50:00,23.9,8.0,30.05,NW,315,0.7,0.7,50,0.00,,---,0.00,VWS V14.01,2013-02-13 12:50:00,
2013-02-13 05:55:00,23.9,8.0,30.06,North,0,1.6,1.6,50,0.00,,---,0.00,VWS V14.01,2013-02-13 12:55:00,
2013-02-13 06:00:00,24.1,7.7,30.06,North,0,1.3,1.3,49,0.00,,---,0.00,VWS V14.01,2013-02-13 13:00:00,
2013-02-13 06:05:00,24.1,7.7,30.06,NW,315,2.5,2.5,49,0.00,,---,0.00,VWS V14.01,2013-02-13 13:05:00,
2013-02-13 06:10:00,24.1,7.7,30.06,NW,315,3.4,3.4,49,0.00,,---,0.00,VWS V14.01,2013-02-13 13:10:00,
2013-02-13 06:15:00,24.5,8.1,30.06,NNW,338,0.9,0.9,49,0.00,,---,0.00,VWS V14.01,2013-02-13 13:15:00,
2013-02-13 06:20:00,24.1,7.3,30.06,NNW,338,0.4,0.4,48,0.00,,---,0.00,VWS V14.01,2013-02-13 13:20:00,
2013-02-13 06:25:00,23.9,7.5,30.06,NNW,338,0.4,0.4,49,0.00,,---,0.00,VWS V14.01,2013-02-13 13:25:00,
2013-02-13 06:29:00,23.9,8.0,30.06,NNW,338,1.1,1.1,50,0.00,,---,0.00,VWS V14.01,2013-02-13 13:29:00,
2013-02-13 06:34:00,23.8,7.9,30.06,NNW,338,0.7,0.7,50,0.00,,---,0.00,VWS V14.01,2013-02-13 13:34:00,
2013-02-13 06:39:00,23.6,8.1,30.06,NNW,338,2.7,2.7,51,0.00,,---,0.00,VWS V14.01,2013-02-13 13:39:00,
2013-02-13 06:44:00,23.9,8.0,30.06,NNW,338,1.1,1.1,50,0.00,,---,0.00,VWS V14.01,2013-02-13 13:44:00,
2013-02-13 06:49:00,24.1,7.7,30.06,NNW,338,0.4,0.4,49,0.00,,---,0.00,VWS V14.01,2013-02-13 13:49:00,
2013-02-13 06:54:00,24.1,8.2,30.06,North,0,2.2,2.2,50,0.00,,---,0.00,VWS V14.01,2013-02-13 13:54:00,
2013-02-13 06:59:00,24.1,7.7,30.06,North,0,1.6,1.6,49,0.00,,---,0.00,VWS V14.01,2013-02-13 13:59:00,
2013-02-13 07:04:00,24.1,7.7,30.06,North,0,1.1,1.1,49,0.00,,---,0.00,VWS V14.01,2013-02-13 14:04:00,
2013-02-13 07:09:00,24.1,8.2,30.06,NNW,338,0.4,0.4,50,0.00,,---,0.00,VWS V14.01,2013-02-13 14:09:00,
2013-02-13 07:14:00,24.1,8.2,30.06,North,0,0.0,0.0,50,0.00,,---,0.00,VWS V14.01,2013-02-13 14:14:00,
2013-02-13 07:19:00,24.1,8.2,30.06,NNW,338,0.4,0.4,50,0.00,,---,0.00,VWS V14.01,2013-02-13 14:19:00,
2013-02-13 07:24:00,24.1,8.2,30.06,NW,315,0.7,0.7,50,0.00,,---,0.00,VWS V14.01,2013-02-13 14:24:00,
2013-02-13 07:29:00,24.7,8.7,30.06,NW,315,0.0,0.0,50,0.00,,---,0.00,VWS V14.01,2013-02-13 14:29:00,
2013-02-13 07:34:00,26.1,10.0,30.07,NW,315,0.2,0.2,50,0.00,,---,0.00,VWS V14.01,2013-02-13 14:34:00,
2013-02-13 07:39:00,28.3,11.1,30.07,NNW,338,2.9,2.9,48,0.00,,---,0.00,VWS V14.01,2013-02-13 14:39:00,
2013-02-13 07:44:00,29.5,9.8,30.06,NNE,22,1.1,1.1,43,0.00,,---,0.00,VWS V14.01,2013-02-13 14:44:00,
2013-02-13 07:49:00,29.9,8.5,30.07,North,0,2.9,2.9,40,0.00,,---,0.00,VWS V14.01,2013-02-13 14:49:00,
2013-02-13 07:54:00,29.9,6.8,30.07,NNW,338,0.7,0.7,37,0.00,,---,0.00,VWS V14.01,2013-02-13 14:54:00,
2013-02-13 07:59:00,30.6,8.0,30.07,North,0,1.6,1.6,38,0.00,,---,0.00,VWS V14.01,2013-02-13 14:59:00,
2013-02-13 08:04:00,31.3,8.1,30.07,NW,315,1.3,1.3,37,0.00,,---,0.00,VWS V14.01,2013-02-13 15:04:00,
2013-02-13 08:09:00,31.7,7.8,30.07,NNW,338,2.0,2.0,36,0.00,,---,0.00,VWS V14.01,2013-02-13 15:09:00,
2013-02-13 08:14:00,31.9,8.6,30.07,NNW,338,3.1,3.1,37,0.00,,---,0.00,VWS V14.01,2013-02-13 15:14:00,
2013-02-13 08:19:00,32.0,8.7,30.07,North,0,2.9,2.9,37,0.00,,---,0.00,VWS V14.01,2013-02-13 15:19:00,
2013-02-13 08:24:00,32.4,7.8,30.07,NNE,22,6.7,6.7,35,0.00,,---,0.00,VWS V14.01,2013-02-13 15:24:00,
2013-02-13 08:29:00,32.9,9.5,30.07,NW,315,3.1,3.1,37,0.00,,---,0.00,VWS V14.01,2013-02-13 15:29:00,
2013-02-13 08:34:00,32.6,8.6,30.07,NNW,338,2.0,2.0,36,0.00,,---,0.00,VWS V14.01,2013-02-13 15:34:00,
2013-02-13 08:39:00,32.0,8.1,30.07,NW,315,2.7,2.7,36,0.00,,---,0.00,VWS V14.01,2013-02-13 15:39:00,
2013-02-13 08:44:00,32.4,8.4,30.07,NW,315,3.4,3.4,36,0.00,,---,0.00,VWS V14.01,2013-02-13 15:44:00,
2013-02-13 08:49:00,32.9,8.3,30.07,NNW,338,9.2,9.2,35,0.00,,---,0.00,VWS V14.01,2013-02-13 15:49:00,
2013-02-13 08:54:00,32.8,8.2,30.07,NW,315,8.3,8.3,35,0.00,,---,0.00,VWS V14.01,2013-02-13 15:54:00,
2013-02-13 08:59:00,32.4,8.4,30.07,NW,315,9.6,9.6,36,0.00,,---,0.00,VWS V14.01,2013-02-13 15:59:00,
2013-02-13 09:04:00,32.8,8.2,30.08,NNW,338,8.3,8.3,35,0.00,,---,0.00,VWS V14.01,2013-02-13 16:04:00,
2013-02-13 09:09:00,32.9,7.6,30.08,NW,315,8.5,8.5,34,0.00,,---,0.00,VWS V14.01,2013-02-13 16:09:00,
2013-02-13 09:14:00,33.5,7.5,30.08,WNW,292,9.8,9.8,33,0.00,,---,0.00,VWS V14.01,2013-02-13 16:14:00,
2013-02-13 09:19:00,34.2,8.1,30.08,NW,315,4.7,4.7,33,0.00,,---,0.00,VWS V14.01,2013-02-13 16:19:00,
2013-02-13 09:24:00,34.7,7.9,30.08,WNW,292,4.0,4.0,32,0.00,,---,0.00,VWS V14.01,2013-02-13 16:24:00,
2013-02-13 09:29:00,34.6,7.8,30.08,North,0,6.0,6.0,32,0.00,,---,0.00,VWS V14.01,2013-02-13 16:29:00,
2013-02-13 09:34:00,34.6,7.8,30.08,NNW,338,5.6,5.6,32,0.00,,---,0.00,VWS V14.01,2013-02-13 16:34:00,
2013-02-13 09:39:00,34.9,8.1,30.08,NW,315,6.3,6.3,32,0.00,,---,0.00,VWS V14.01,2013-02-13 16:39:00,
2013-02-13 09:44:00,34.7,7.2,30.08,NW,315,4.7,4.7,31,0.00,,---,0.00,VWS V14.01,2013-02-13 16:44:00,
2013-02-13 09:49:00,34.9,8.1,30.08,NNW,338,5.4,5.4,32,0.00,,---,0.00,VWS V14.01,2013-02-13 16:49:00,
2013-02-13 09:54:00,34.6,7.8,30.08,North,0,6.3,6.3,32,0.00,,---,0.00,VWS V14.01,2013-02-13 16:54:00,
2013-02-13 09:59:00,35.1,7.5,30.08,NW,315,4.9,4.9,31,0.00,,---,0.00,VWS V14.01,2013-02-13 16:59:00,
2013-02-13 10:04:00,35.3,8.4,30.08,NW,315,5.8,5.8,32,0.00,,---,0.00,VWS V14.01,2013-02-13 17:04:00,
2013-02-13 10:09:00,34.9,8.1,30.07,NNW,338,8.7,8.7,32,0.00,,---,0.00,VWS V14.01,2013-02-13 17:09:00,
2013-02-13 10:14:00,35.1,8.2,30.07,North,0,6.9,6.9,32,0.00,,---,0.00,VWS V14.01,2013-02-13 17:14:00,
2013-02-13 10:19:00,35.3,8.4,30.07,North,0,9.8,9.8,32,0.00,,---,0.00,VWS V14.01,2013-02-13 17:19:00,
2013-02-13 10:24:00,35.6,8.0,30.06,North,0,5.4,5.4,31,0.00,,---,0.00,VWS V14.01,2013-02-13 17:24:00,
2013-02-13 10:29:00,35.8,8.1,30.06,NW,315,4.7,4.7,31,0.00,,---,0.00,VWS V14.01,2013-02-13 17:29:00,
2013-02-13 10:34:00,35.8,8.1,30.06,NNE,22,3.6,3.6,31,0.00,,---,0.00,VWS V14.01,2013-02-13 17:34:00,
2013-02-13 10:39:00,36.2,8.5,30.06,North,0,4.0,4.0,31,0.00,,---,0.00,VWS V14.01,2013-02-13 17:39:00,
2013-02-13 10:44:00,36.2,8.5,30.06,NNW,338,2.7,4.0,31,0.00,,---,0.01,VWS V14.01,2013-02-13 17:44:00,
2013-02-13 10:49:00,36.0,8.3,30.07,NNW,338,4.9,4.9,31,0.00,,---,0.00,VWS V14.01,2013-02-13 17:49:00,
2013-02-13 10:54:00,36.0,8.3,30.06,NNW,338,4.7,4.7,31,0.00,,---,0.00,VWS V14.01,2013-02-13 17:54:00,
2013-02-13 10:59:00,36.2,8.5,30.06,NNW,338,3.6,3.6,31,0.00,,---,0.00,VWS V14.01,2013-02-13 17:59:00,
2013-02-13 11:04:00,36.9,8.4,30.06,NNE,22,7.6,7.6,30,0.00,,---,0.00,VWS V14.01,2013-02-13 18:04:00,
2013-02-13 11:09:00,36.7,8.2,30.05,NNE,22,4.0,4.0,30,0.00,,---,0.00,VWS V14.01,2013-02-13 18:09:00,
2013-02-13 11:14:00,37.4,8.8,30.06,NNW,338,8.5,8.5,30,0.00,,---,0.00,VWS V14.01,2013-02-13 18:14:00,
2013-02-13 11:19:00,37.3,8.7,30.05,WNW,292,7.2,7.2,30,0.00,,---,0.00,VWS V14.01,2013-02-13 18:19:00,
2013-02-13 11:24:00,37.8,7.6,30.05,NW,315,6.3,6.3,28,0.00,,---,0.00,VWS V14.01,2013-02-13 18:24:00,
2013-02-13 11:29:00,37.8,7.6,30.05,NNW,338,10.5,10.5,28,0.00,,---,0.00,VWS V14.01,2013-02-13 18:29:00,
2013-02-13 11:34:00,38.3,8.1,30.04,WNW,292,5.4,5.4,28,0.00,,---,0.00,VWS V14.01,2013-02-13 18:34:00,
2013-02-13 11:39:00,38.3,7.3,30.04,NW,315,8.5,8.5,27,0.00,,---,0.00,VWS V14.01,2013-02-13 18:39:00,
2013-02-13 11:44:00,38.5,9.0,30.04,NW,315,8.3,8.3,29,0.00,,---,0.00,VWS V14.01,2013-02-13 18:44:00,
2013-02-13 11:49:00,38.3,8.1,30.04,NW,315,3.6,3.6,28,0.00,,---,0.00,VWS V14.01,2013-02-13 18:49:00,
2013-02-13 11:54:00,38.9,8.6,30.03,WNW,292,4.5,4.5,28,0.00,,---,0.00,VWS V14.01,2013-02-13 18:54:00,
2013-02-13 11:59:00,39.4,9.0,30.03,West,270,5.1,5.1,28,0.00,,---,0.00,VWS V14.01,2013-02-13 18:59:00,
2013-02-13 12:04:00,39.6,8.4,30.03,WNW,292,8.7,8.7,27,0.00,,---,0.00,VWS V14.01,2013-02-13 19:04:00,
2013-02-13 12:09:00,39.1,8.8,30.03,North,0,10.1,10.1,28,0.00,,---,0.00,VWS V14.01,2013-02-13 19:09:00,
2013-02-13 12:14:00,40.0,9.5,30.03,North,0,7.4,7.4,28,0.00,,---,0.00,VWS V14.01,2013-02-13 19:14:00,
2013-02-13 12:19:00,39.8,9.4,30.02,North,0,8.3,11.0,28,0.00,,---,0.00,VWS V14.01,2013-02-13 19:19:00,
2013-02-13 12:24:00,39.6,9.2,30.02,NNW,338,9.6,9.6,28,0.00,,---,0.00,VWS V14.01,2013-02-13 19:24:00,
2013-02-13 12:29:00,40.3,9.8,30.02,NNW,338,8.5,8.5,28,0.00,,---,0.00,VWS V14.01,2013-02-13 19:29:00,
2013-02-13 12:34:00,40.3,9.8,30.02,NNW,338,6.9,6.9,28,0.00,,---,0.00,VWS V14.01,2013-02-13 19:34:00,
2013-02-13 12:39:00,40.9,10.3,30.02,NNE,22,11.4,11.4,28,0.00,,---,0.00,VWS V14.01,2013-02-13 19:39:00,
2013-02-13 12:44:00,41.0,10.4,30.01,WNW,292,6.5,6.5,28,0.00,,---,0.00,VWS V14.01,2013-02-13 19:44:00,
2013-02-13 12:49:00,41.0,10.4,30.01,WNW,292,4.9,4.9,28,0.00,,---,0.00,VWS V14.01,2013-02-13 19:49:00,
2013-02-13 12:54:00,41.9,10.4,30.01,WNW,292,7.2,7.2,27,0.00,,---,0.00,VWS V14.01,2013-02-13 19:54:00,
2013-02-13 12:59:00,41.8,11.1,30.01,NNW,338,6.3,6.3,28,0.00,,---,0.00,VWS V14.01,2013-02-13 19:59:00,
2013-02-13 13:04:00,42.3,11.5,30.01,NW,315,11.2,11.2,28,0.00,,---,0.00,VWS V14.01,2013-02-13 20:04:00,
2013-02-13 13:09:00,42.3,11.5,30.00,WSW,248,2.5,2.5,28,0.00,,---,0.00,VWS V14.01,2013-02-13 20:09:00,
2013-02-13 13:14:00,41.9,11.2,30.00,NW,315,10.5,10.5,28,0.00,,---,0.00,VWS V14.01,2013-02-13 20:14:00,
2013-02-13 13:19:00,42.1,11.4,30.00,NW,315,6.9,6.9,28,0.00,,---,0.00,VWS V14.01,2013-02-13 20:19:00,
2013-02-13 13:24:00,43.0,11.3,30.00,West,270,7.4,7.4,27,0.00,,---,0.00,VWS V14.01,2013-02-13 20:24:00,
2013-02-13 13:29:00,43.0,11.3,29.99,NW,315,9.2,9.2,27,0.00,,---,0.00,VWS V14.01,2013-02-13 20:29:00,
2013-02-13 13:34:00,42.5,11.7,29.99,NW,315,6.3,6.3,28,0.00,,---,0.00,VWS V14.01,2013-02-13 20:34:00,
2013-02-13 13:39:00,43.2,12.3,29.99,NNE,22,5.6,5.6,28,0.00,,---,0.00,VWS V14.01,2013-02-13 20:39:00,
2013-02-13 13:44:00,43.6,12.7,29.98,WNW,292,7.8,7.8,28,0.00,,---,0.00,VWS V14.01,2013-02-13 20:44:00,
2013-02-13 13:49:00,44.3,12.4,29.99,NNW,338,6.9,6.9,27,0.00,,---,0.00,VWS V14.01,2013-02-13 20:49:00,
2013-02-13 13:54:00,44.6,12.7,29.99,WNW,292,6.9,6.9,27,0.00,,---,0.00,VWS V14.01,2013-02-13 20:54:00,
2013-02-13 13:59:00,44.5,12.6,29.98,NW,315,11.2,11.2,27,0.00,,---,0.00,VWS V14.01,2013-02-13 20:59:00,
2013-02-13 14:04:00,44.5,12.6,29.98,West,270,9.8,9.8,27,0.00,,---,0.00,VWS V14.01,2013-02-13 21:04:00,
2013-02-13 14:09:00,44.6,12.7,29.98,NW,315,4.3,4.3,27,0.00,,---,0.00,VWS V14.01,2013-02-13 21:09:00,
2013-02-13 14:14:00,45.4,13.4,29.98,North,0,5.8,5.8,27,0.00,,---,0.00,VWS V14.01,2013-02-13 21:14:00,
2013-02-13 14:19:00,45.7,11.9,29.98,NNW,338,10.5,10.5,25,0.00,,---,0.00,VWS V14.01,2013-02-13 21:19:00,
2013-02-13 14:24:00,45.4,11.6,29.98,WNW,292,8.7,8.7,25,0.00,,---,0.00,VWS V14.01,2013-02-13 21:24:00,
2013-02-13 14:29:00,44.6,12.7,29.98,North,0,4.9,4.9,27,0.00,,---,0.00,VWS V14.01,2013-02-13 21:29:00,
2013-02-13 14:34:00,45.9,12.1,29.98,ENE,68,6.0,6.0,25,0.00,,---,0.00,VWS V14.01,2013-02-13 21:34:00,
2013-02-13 14:39:00,47.0,12.1,29.98,North,0,6.0,6.0,24,0.00,,---,0.00,VWS V14.01,2013-02-13 21:39:00,
2013-02-13 14:44:00,46.8,11.9,29.97,NNW,338,6.3,6.3,24,0.00,,---,0.00,VWS V14.01,2013-02-13 21:44:00,
2013-02-13 14:49:00,46.6,11.8,29.98,NNW,338,9.8,9.8,24,0.00,,---,0.00,VWS V14.01,2013-02-13 21:49:00,
2013-02-13 14:54:00,45.7,11.9,29.98,WNW,292,5.1,5.1,25,0.00,,---,0.00,VWS V14.01,2013-02-13 21:54:00,
2013-02-13 14:59:00,46.6,12.7,29.97,WNW,292,5.6,5.6,25,0.00,,---,0.00,VWS V14.01,2013-02-13 21:59:00,
2013-02-13 15:04:00,46.4,12.5,29.97,NNW,338,6.9,6.9,25,0.00,,---,0.00,VWS V14.01,2013-02-13 22:04:00,
2013-02-13 15:09:00,46.4,12.5,29.98,WNW,292,9.8,9.8,25,0.00,,---,0.00,VWS V14.01,2013-02-13 22:09:00,
2013-02-13 15:14:00,46.4,12.5,29.97,NNW,338,6.3,6.3,25,0.00,,---,0.00,VWS V14.01,2013-02-13 22:14:00,
2013-02-13 15:19:00,47.2,13.2,29.98,NW,315,5.6,5.6,25,0.00,,---,0.00,VWS V14.01,2013-02-13 22:19:00,
2013-02-13 15:24:00,47.0,13.0,29.98,NW,315,10.3,10.3,25,0.00,,---,0.00,VWS V14.01,2013-02-13 22:24:00,
2013-02-13 15:29:00,47.2,13.2,29.98,WNW,292,10.3,10.3,25,0.00,,---,0.00,VWS V14.01,2013-02-13 22:29:00,
2013-02-13 15:34:00,47.7,13.6,29.97,NW,315,7.4,7.4,25,0.00,,---,0.00,VWS V14.01,2013-02-13 22:34:00,
2013-02-13 15:39:00,47.9,13.8,29.97,NNW,338,11.4,11.4,25,0.00,,---,0.00,VWS V14.01,2013-02-13 22:39:00,
2013-02-13 15:44:00,47.7,13.6,29.97,NNW,338,7.6,7.6,25,0.00,,---,0.00,VWS V14.01,2013-02-13 22:44:00,
2013-02-13 15:49:00,47.2,13.2,29.97,North,0,8.9,8.9,25,0.00,,---,0.00,VWS V14.01,2013-02-13 22:49:00,
2013-02-13 15:54:00,47.3,13.3,29.97,NNW,338,8.7,8.7,25,0.00,,---,0.00,VWS V14.01,2013-02-13 22:54:00,
2013-02-13 15:59:00,47.9,13.8,29.97,North,0,9.8,9.8,25,0.00,,---,0.00,VWS V14.01,2013-02-13 22:59:00,
2013-02-13 16:04:00,47.2,13.2,29.97,WNW,292,9.2,9.2,25,0.00,,---,0.00,VWS V14.01,2013-02-13 23:04:00,
2013-02-13 16:09:00,47.0,13.0,29.97,NW,315,7.8,7.8,25,0.00,,---,0.00,VWS V14.01,2013-02-13 23:09:00,
2013-02-13 16:14:00,47.3,13.3,29.97,NNW,338,5.4,5.4,25,0.00,,---,0.00,VWS V14.01,2013-02-13 23:14:00,
2013-02-13 16:19:00,47.2,13.2,29.97,NW,315,10.3,10.3,25,0.00,,---,0.00,VWS V14.01,2013-02-13 23:19:00,
2013-02-13 16:24:00,46.6,12.7,29.97,NW,315,6.9,6.9,25,0.00,,---,0.00,VWS V14.01,2013-02-13 23:24:00,
2013-02-13 16:29:00,46.4,13.4,29.97,WNW,292,6.3,6.3,26,0.00,,---,0.00,VWS V14.01,2013-02-13 23:29:00,
2013-02-13 16:34:00,46.8,12.9,29.97,WNW,292,9.6,9.6,25,0.00,,---,0.00,VWS V14.01,2013-02-13 23:34:00,
2013-02-13 16:39:00,46.6,12.7,29.97,NW,315,5.8,5.8,25,0.00,,---,0.00,VWS V14.01,2013-02-13 23:39:00,
2013-02-13 16:44:00,46.6,13.6,29.97,NW,315,4.9,4.9,26,0.00,,---,0.00,VWS V14.01,2013-02-13 23:44:00,
2013-02-13 16:49:00,46.4,14.2,29.97,WNW,292,6.9,6.9,27,0.00,,---,0.00,VWS V14.01,2013-02-13 23:49:00,
2013-02-13 16:54:00,45.9,13.8,29.97,NW,315,9.2,9.2,27,0.00,,---,0.00,VWS V14.01,2013-02-13 23:54:00,
2013-02-13 16:59:00,45.4,13.4,29.97,NW,315,6.9,6.9,27,0.00,,---,0.00,VWS V14.01,2013-02-13 23:59:00,
2013-02-13 17:04:00,45.2,14.1,29.97,NNW,338,8.3,8.3,28,0.00,,---,0.00,VWS V14.01,2013-02-14 00:04:00,
2013-02-13 17:09:00,45.2,14.1,29.98,West,270,6.9,6.9,28,0.00,,---,0.00,VWS V14.01,2013-02-14 00:09:00,
2013-02-13 17:14:00,45.0,13.9,29.97,NW,315,11.2,11.2,28,0.00,,---,0.00,VWS V14.01,2013-02-14 00:14:00,
2013-02-13 17:19:00,45.0,13.9,29.97,NW,315,5.4,5.4,28,0.00,,---,0.00,VWS V14.01,2013-02-14 00:19:00,
2013-02-13 17:24:00,44.6,13.5,29.97,NW,315,7.6,7.6,28,0.00,,---,0.00,VWS V14.01,2013-02-14 00:24:00,
2013-02-13 17:29:00,44.3,13.3,29.98,North,0,8.7,8.7,28,0.00,,---,0.00,VWS V14.01,2013-02-14 00:29:00,
2013-02-13 17:34:00,43.9,13.7,29.98,West,270,5.8,5.8,29,0.00,,---,0.00,VWS V14.01,2013-02-14 00:34:00,
2013-02-13 17:39:00,43.4,13.3,29.98,WNW,292,7.4,7.4,29,0.00,,---,0.00,VWS V14.01,2013-02-14 00:39:00,
2013-02-13 17:44:00,43.0,12.9,29.98,NNW,338,7.6,7.6,29,0.00,,---,0.00,VWS V14.01,2013-02-14 00:44:00,
2013-02-13 17:49:00,42.8,12.8,29.98,NNW,338,12.3,12.3,29,0.00,,---,0.00,VWS V14.01,2013-02-14 00:49:00,
2013-02-13 17:54:00,42.5,13.3,29.98,NNW,338,9.2,9.2,30,0.00,,---,0.00,VWS V14.01,2013-02-14 00:54:00,
2013-02-13 17:59:00,42.3,13.1,29.99,NNW,338,8.1,8.1,30,0.00,,---,0.00,VWS V14.01,2013-02-14 00:59:00,
2013-02-13 18:04:00,42.1,12.9,29.99,NW,315,6.5,6.5,30,0.00,,---,0.00,VWS V14.01,2013-02-14 01:04:00,
2013-02-13 18:09:00,42.1,12.9,30.00,NNW,338,6.5,6.5,30,0.00,,---,0.00,VWS V14.01,2013-02-14 01:09:00,
2013-02-13 18:14:00,41.8,13.4,30.00,WNW,292,3.4,3.4,31,0.00,,---,0.00,VWS V14.01,2013-02-14 01:14:00,
2013-02-13 18:19:00,41.6,13.2,30.00,NW,315,6.9,6.9,31,0.00,,---,0.00,VWS V14.01,2013-02-14 01:19:00,
2013-02-13 18:23:00,41.2,13.6,30.00,North,0,9.2,9.2,32,0.00,,---,0.01,VWS V14.01,2013-02-14 01:23:00,
2013-02-13 18:28:00,41.0,13.4,30.00,NW,315,10.3,10.3,32,0.00,,---,0.00,VWS V14.01,2013-02-14 01:28:00,
2013-02-13 18:33:00,40.7,13.9,30.01,NW,315,8.5,8.5,33,0.00,,---,0.00,VWS V14.01,2013-02-14 01:33:00,
2013-02-13 18:38:00,40.7,13.9,30.01,NW,315,6.3,6.3,33,0.00,,---,0.00,VWS V14.01,2013-02-14 01:38:00,
2013-02-13 18:43:00,40.3,14.2,30.01,NNW,338,12.1,12.1,34,0.00,,---,0.00,VWS V14.01,2013-02-14 01:43:00,
2013-02-13 18:48:00,40.1,14.0,30.01,NW,315,9.2,9.2,34,0.00,,---,0.00,VWS V14.01,2013-02-14 01:48:00,
2013-02-13 18:53:00,40.0,14.6,30.01,NNW,338,9.2,9.2,35,0.00,,---,0.00,VWS V14.01,2013-02-14 01:53:00,
2013-02-13 18:58:00,39.8,14.4,30.01,NNW,338,6.5,6.5,35,0.00,,---,0.00,VWS V14.01,2013-02-14 01:58:00,
2013-02-13 19:03:00,39.6,14.2,30.01,NW,315,11.2,11.2,35,0.00,,---,0.00,VWS V14.01,2013-02-14 02:03:00,
2013-02-13 19:08:00,39.6,14.2,30.01,NE,45,4.7,4.7,35,0.00,,---,0.00,VWS V14.01,2013-02-14 02:08:00,
2013-02-13 19:13:00,39.2,14.5,30.01,NNW,338,3.4,3.4,36,0.00,,---,0.00,VWS V14.01,2013-02-14 02:13:00,
2013-02-13 19:18:00,39.2,14.5,30.01,NNE,22,4.7,4.7,36,0.00,,---,0.00,VWS V14.01,2013-02-14 02:18:00,
2013-02-13 19:23:00,38.9,14.2,30.02,NNW,338,5.6,5.6,36,0.00,,---,0.00,VWS V14.01,2013-02-14 02:23:00,
2013-02-13 19:28:00,38.7,14.7,30.02,NNW,338,3.4,3.4,37,0.00,,---,0.00,VWS V14.01,2013-02-14 02:28:00,
2013-02-13 19:33:00,38.5,14.5,30.02,North,0,5.4,5.4,37,0.00,,---,0.00,VWS V14.01,2013-02-14 02:33:00,
2013-02-13 19:38:00,38.3,14.3,30.02,North,0,4.7,4.7,37,0.00,,---,0.00,VWS V14.01,2013-02-14 02:38:00,
2013-02-13 19:43:00,38.2,14.2,30.03,NE,45,2.0,2.0,37,0.00,,---,0.00,VWS V14.01,2013-02-14 02:43:00,
2013-02-13 19:48:00,38.5,14.5,30.03,NNW,338,9.2,9.2,37,0.00,,---,0.00,VWS V14.01,2013-02-14 02:48:00,
2013-02-13 19:53:00,38.5,14.5,30.03,ENE,68,6.3,6.3,37,0.00,,---,0.00,VWS V14.01,2013-02-14 02:53:00,
2013-02-13 19:58:00,38.5,14.5,30.03,NNW,338,9.4,9.4,37,0.00,,---,0.00,VWS V14.01,2013-02-14 02:58:00,
2013-02-13 20:03:00,38.9,15.5,30.04,NNW,338,8.1,8.1,38,0.00,,---,0.00,VWS V14.01,2013-02-14 03:03:00,
2013-02-13 20:08:00,38.9,16.1,30.03,NNW,338,7.4,7.4,39,0.00,,---,0.00,VWS V14.01,2013-02-14 03:08:00,
2013-02-13 20:13:00,38.5,15.7,30.03,North,0,8.3,8.3,39,0.00,,---,0.00,VWS V14.01,2013-02-14 03:13:00,
2013-02-13 20:18:00,38.5,16.3,30.03,NW,315,4.0,4.0,40,0.00,,---,0.00,VWS V14.01,2013-02-14 03:18:00,
2013-02-13 20:23:00,38.2,16.0,30.03,NNW,338,4.7,4.7,40,0.00,,---,0.00,VWS V14.01,2013-02-14 03:23:00,
2013-02-13 20:28:00,38.2,16.0,30.03,NW,315,5.4,5.4,40,0.00,,---,0.00,VWS V14.01,2013-02-14 03:28:00,
2013-02-13 20:33:00,37.8,15.7,30.03,North,0,2.2,2.2,40,0.00,,---,0.00,VWS V14.01,2013-02-14 03:33:00,
2013-02-13 20:38:00,37.6,16.0,30.03,North,0,0.4,0.4,41,0.00,,---,0.00,VWS V14.01,2013-02-14 03:38:00,
2013-02-13 20:43:00,37.1,15.6,30.03,North,0,1.1,1.1,41,0.00,,---,0.00,VWS V14.01,2013-02-14 03:43:00,
2013-02-13 20:48:00,36.7,15.2,30.03,North,0,0.2,0.2,41,0.00,,---,0.00,VWS V14.01,2013-02-14 03:48:00,
2013-02-13 20:53:00,36.4,16.0,30.03,NE,45,1.1,1.1,43,0.00,,---,0.00,VWS V14.01,2013-02-14 03:53:00,
2013-02-13 20:58:00,36.2,15.9,30.03,ENE,68,0.7,0.7,43,0.00,,---,0.00,VWS V14.01,2013-02-14 03:58:00,
2013-02-13 21:03:00,35.8,14.4,30.03,ENE,68,0.4,0.4,41,0.00,,---,0.00,VWS V14.01,2013-02-14 04:03:00,
2013-02-13 21:08:00,34.9,13.6,30.03,NE,45,0.0,0.0,41,0.00,,---,0.00,VWS V14.01,2013-02-14 04:08:00,
2013-02-13 21:13:00,34.2,13.5,30.03,NE,45,0.4,0.4,42,0.00,,---,0.00,VWS V14.01,2013-02-14 04:13:00,
2013-02-13 21:18:00,34.2,13.5,30.03,ENE,68,0.0,0.0,42,0.00,,---,0.00,VWS V14.01,2013-02-14 04:18:00,
2013-02-13 21:23:00,33.8,13.7,30.03,NE,45,1.1,1.1,43,0.00,,---,0.00,VWS V14.01,2013-02-14 04:23:00,
2013-02-13 21:28:00,33.7,14.1,30.03,NNW,338,0.0,0.0,44,0.00,,---,0.00,VWS V14.01,2013-02-14 04:28:00,
2013-02-13 21:33:00,33.7,14.6,30.03,NW,315,0.7,0.7,45,0.00,,---,0.00,VWS V14.01,2013-02-14 04:33:00,
2013-02-13 21:38:00,33.8,14.7,30.03,NW,315,0.4,0.4,45,0.00,,---,0.00,VWS V14.01,2013-02-14 04:38:00,
2013-02-13 21:43:00,34.2,15.1,30.03,NW,315,0.4,1.8,45,0.00,,---,0.00,VWS V14.01,2013-02-14 04:43:00,
2013-02-13 21:48:00,34.2,15.1,30.03,NW,315,2.2,2.2,45,0.00,,---,0.00,VWS V14.01,2013-02-14 04:48:00,
2013-02-13 21:53:00,34.6,14.9,30.03,NNW,338,3.1,3.1,44,0.00,,---,0.00,VWS V14.01,2013-02-14 04:53:00,
2013-02-13 21:58:00,34.9,15.2,30.03,NNW,338,2.9,2.9,44,0.00,,---,0.00,VWS V14.01,2013-02-14 04:58:00,
2013-02-13 22:00:00,34.9,15.2,30.04,NNW,338,2.0,2.0,44,0.00,,---,0.00,VWS V14.01,2013-02-14 05:00:00,
2013-02-13 22:05:00,34.9,15.2,30.03,NNW,338,1.1,1.1,44,0.00,,---,0.00,VWS V14.01,2013-02-14 05:05:00,
2013-02-13 22:10:00,34.9,15.2,30.03,NNE,22,2.5,2.5,44,0.00,,---,0.00,VWS V14.01,2013-02-14 05:10:00,
2013-02-13 22:15:00,34.4,14.8,30.04,North,0,1.6,1.6,44,0.00,,---,0.00,VWS V14.01,2013-02-14 05:15:00,
2013-02-13 22:20:00,34.2,15.1,30.04,NNE,22,1.3,1.3,45,0.00,,---,0.00,VWS V14.01,2013-02-14 05:20:00,
2013-02-13 22:25:00,34.0,14.9,30.04,NNE,22,0.9,0.9,45,0.00,,---,0.00,VWS V14.01,2013-02-14 05:25:00,
2013-02-13 22:30:00,34.0,14.9,30.04,NNE,22,0.4,0.4,45,0.00,,---,0.00,VWS V14.01,2013-02-14 05:30:00,
2013-02-13 22:35:00,34.0,14.9,30.04,NNE,22,3.8,3.8,45,0.00,,---,0.00,VWS V14.01,2013-02-14 05:35:00,
2013-02-13 22:40:00,34.2,15.1,30.04,NNW,338,2.0,2.0,45,0.00,,---,0.00,VWS V14.01,2013-02-14 05:40:00,
2013-02-13 22:45:00,34.7,15.6,30.04,NNE,22,6.7,6.7,45,0.00,,---,0.00,VWS V14.01,2013-02-14 05:45:00,
2013-02-13 22:50:00,35.1,15.4,30.04,NNW,338,1.3,1.3,44,0.00,,---,0.00,VWS V14.01,2013-02-14 05:50:00,
2013-02-13 22:55:00,34.9,15.2,30.04,North,0,3.4,3.4,44,0.00,,---,0.00,VWS V14.01,2013-02-14 05:55:00,
2013-02-13 23:00:00,34.9,15.2,30.04,North,0,2.9,2.9,44,0.00,,---,0.00,VWS V14.01,2013-02-14 06:00:00,
2013-02-13 23:05:00,34.9,15.2,30.04,NNW,338,3.1,3.1,44,0.00,,---,0.00,VWS V14.01,2013-02-14 06:05:00,
2013-02-13 23:10:00,34.7,15.6,30.04,NNE,22,5.4,5.4,45,0.00,,---,0.00,VWS V14.01,2013-02-14 06:10:00,
2013-02-13 23:15:00,34.9,15.7,30.04,North,0,2.2,2.2,45,0.00,,---,0.00,VWS V14.01,2013-02-14 06:15:00,
2013-02-13 23:20:00,34.6,15.5,30.04,NNE,22,7.6,7.6,45,0.00,,---,0.00,VWS V14.01,2013-02-14 06:20:00,
2013-02-13 23:25:00,34.6,15.5,30.04,NNE,22,5.4,5.4,45,0.00,,---,0.00,VWS V14.01,2013-02-14 06:25:00,
2013-02-13 23:30:00,34.9,15.7,30.04,NNE,22,6.5,6.5,45,0.00,,---,0.00,VWS V14.01,2013-02-14 06:30:00,
2013-02-13 23:35:00,34.9,15.7,30.04,North,0,6.3,6.3,45,0.00,,---,0.00,VWS V14.01,2013-02-14 06:35:00,
2013-02-13 23:40:00,34.7,15.6,30.03,NNE,22,6.3,6.3,45,0.00,,---,0.00,VWS V14.01,2013-02-14 06:40:00,
2013-02-13 23:45:00,34.7,15.6,30.03,North,0,4.7,4.7,45,0.00,,---,0.00,VWS V14.01,2013-02-14 06:45:00,
2013-02-13 23:50:00,34.6,15.5,30.03,North,0,5.4,5.4,45,0.00,,---,0.00,VWS V14.01,2013-02-14 06:50:00,
2013-02-13 23:55:00,34.6,15.5,30.03,North,0,6.3,6.3,45,0.00,,---,0.00,VWS V14.01,2013-02-14 06:55:00,